createdAt,value
2022-09-24T00:01:34.603Z,28.07
2022-09-24T00:04:07.964Z,31.17
2022-09-24T00:06:37.548Z,28.93
2022-09-24T00:09:05.143Z,27.90
2022-09-24T00:11:32.708Z,27.03
2022-09-24T00:14:00.072Z,28.07
2022-09-24T00:16:31.408Z,27.77
2022-09-24T00:18:59.463Z,29.67
2022-09-24T00:21:44.579Z,26.40
2022-09-24T00:24:36.509Z,29.50
2022-09-24T00:27:05.787Z,28.43
2022-09-24T00:29:34.344Z,25.43
2022-09-24T00:32:01.989Z,29.83
2022-09-24T00:34:29.846Z,27.90
2022-09-24T00:36:56.664Z,24.57
2022-09-24T00:39:23.545Z,28.30
2022-09-24T00:41:50.290Z,27.47
2022-09-24T00:44:45.163Z,28.33
2022-09-24T00:47:42.378Z,25.23
2022-09-24T00:50:21.179Z,24.98
2022-09-24T00:52:56.541Z,26.13
2022-09-24T00:55:24.606Z,27.00
2022-09-24T00:57:56.221Z,27.93
2022-09-24T01:00:23.746Z,31.43
2022-09-24T01:02:56.680Z,26.13
2022-09-24T01:05:23.526Z,25.10
2022-09-24T01:07:50.283Z,29.73
2022-09-24T01:10:42.521Z,33.30
2022-09-24T01:13:43.325Z,26.50
2022-09-24T01:16:16.623Z,28.47
2022-09-24T01:18:53.455Z,31.13
2022-09-24T01:21:30.067Z,31.03
2022-09-24T01:24:27.729Z,29.93
2022-09-24T01:27:19.790Z,32.10
2022-09-24T01:29:53.649Z,28.47
2022-09-24T01:32:42.033Z,30.40
2022-09-24T01:35:18.972Z,33.37
2022-09-24T01:37:52.306Z,29.85
2022-09-24T01:40:22.695Z,28.77
2022-09-24T01:42:51.871Z,34.78
2022-09-24T01:45:19.972Z,31.52
2022-09-24T01:47:47.224Z,29.47
2022-09-24T01:50:17.523Z,30.88
2022-09-24T01:53:06.287Z,29.67
2022-09-24T01:55:43.082Z,35.87
2022-09-24T01:58:19.561Z,34.13
2022-09-24T02:00:49.228Z,33.55
2022-09-24T02:03:24.002Z,33.83
2022-09-24T02:05:58.375Z,31.30
2022-09-24T02:08:31.699Z,33.50
2022-09-24T02:11:28.869Z,33.63
2022-09-24T02:14:06.328Z,35.40
2022-09-24T02:16:37.909Z,31.93
2022-09-24T02:19:13.304Z,31.75
2022-09-24T02:21:42.166Z,32.80
2022-09-24T02:24:15.313Z,32.38
2022-09-24T02:26:42.951Z,33.57
2022-09-24T02:29:09.831Z,33.25
2022-09-24T02:31:48.133Z,31.73
2022-09-24T02:34:21.201Z,31.73
2022-09-24T02:36:52.071Z,32.20
2022-09-24T02:39:19.781Z,32.22
2022-09-24T02:41:48.407Z,32.38
2022-09-24T02:44:16.561Z,30.05
2022-09-24T02:46:44.347Z,30.20
2022-09-24T02:49:11.973Z,35.63
2022-09-24T02:51:39.118Z,28.50
2022-09-24T02:54:06.651Z,30.98
2022-09-24T02:56:33.465Z,35.47
2022-09-24T02:59:01.953Z,30.73
2022-09-24T03:01:29.866Z,28.65
2022-09-24T03:03:56.878Z,26.38
2022-09-24T03:06:25.046Z,29.92
2022-09-24T03:08:53.503Z,26.00
2022-09-24T03:11:21.757Z,23.77
2022-09-24T03:13:49.638Z,24.80
2022-09-24T03:16:17.800Z,23.77
2022-09-24T03:18:46.995Z,19.00
2022-09-24T03:21:16.662Z,22.20
2022-09-24T03:23:43.874Z,15.45
2022-09-24T03:26:10.736Z,15.60
2022-09-24T03:28:37.758Z,15.35
2022-09-24T03:31:05.246Z,13.70
2022-09-24T03:33:44.592Z,13.07
2022-09-24T03:36:16.050Z,5.10
2022-09-24T03:38:44.741Z,10.53
2022-09-24T03:41:12.455Z,4.50
2022-09-24T03:43:39.649Z,3.03
2022-09-24T03:46:07.603Z,5.40
2022-09-24T03:48:36.210Z,5.15
2022-09-24T03:51:14.313Z,3.10
2022-09-24T03:53:41.366Z,6.80
2022-09-24T03:56:09.671Z,5.50
2022-09-24T03:58:37.991Z,7.33
2022-09-24T04:01:10.577Z,6.72
2022-09-24T04:03:37.875Z,3.93
2022-09-24T04:06:05.878Z,8.73
2022-09-24T04:08:33.031Z,5.33
2022-09-24T04:10:59.838Z,5.77
2022-09-24T04:13:26.672Z,11.93
2022-09-24T04:15:55.066Z,9.98
2022-09-24T04:18:22.425Z,3.97
2022-09-24T04:20:49.562Z,6.63
2022-09-24T04:23:16.402Z,8.73
2022-09-24T04:25:43.161Z,3.70
2022-09-24T04:28:10.798Z,7.70
2022-09-24T04:30:38.371Z,9.53
2022-09-24T04:33:06.365Z,10.03
2022-09-24T04:35:36.031Z,6.10
2022-09-24T04:38:04.662Z,8.27
2022-09-24T04:40:32.217Z,7.40
2022-09-24T04:42:59.539Z,8.40
2022-09-24T04:45:26.945Z,1.90
2022-09-24T04:47:57.424Z,7.80
2022-09-24T04:50:29.142Z,8.80
2022-09-24T04:52:56.599Z,5.83
2022-09-24T04:55:24.129Z,4.60
2022-09-24T04:57:51.348Z,5.73
2022-09-24T05:00:20.941Z,10.50
2022-09-24T05:02:55.317Z,4.93
2022-09-24T05:05:22.195Z,4.17
2022-09-24T05:07:49.499Z,8.10
2022-09-24T05:10:16.274Z,11.50
2022-09-24T05:12:43.033Z,10.93
2022-09-24T05:15:10.053Z,8.90
2022-09-24T05:17:40.249Z,7.67
2022-09-24T05:20:10.397Z,6.43
2022-09-24T05:22:44.646Z,7.27
2022-09-24T05:25:12.753Z,7.83
2022-09-24T05:27:45.910Z,4.50
2022-09-24T05:30:13.266Z,8.03
2022-09-24T05:32:40.625Z,7.07
2022-09-24T05:35:10.657Z,9.63
2022-09-24T05:37:38.371Z,4.53
2022-09-24T05:40:24.739Z,8.97
2022-09-24T05:42:52.111Z,6.37
2022-09-24T05:45:19.037Z,6.87
2022-09-24T05:47:46.221Z,5.70
2022-09-24T05:50:16.234Z,2.90
2022-09-24T05:52:43.049Z,8.77
2022-09-24T05:55:10.725Z,4.77
2022-09-24T05:57:38.145Z,7.60
2022-09-24T06:00:06.924Z,7.03
2022-09-24T06:02:39.752Z,7.10
2022-09-24T06:05:07.207Z,5.93
2022-09-24T06:07:34.038Z,4.47
2022-09-24T06:10:00.918Z,6.07
2022-09-24T06:12:27.982Z,7.40
2022-09-24T06:14:54.741Z,9.60
2022-09-24T06:17:22.179Z,6.27
2022-09-24T06:19:49.020Z,9.53
2022-09-24T06:22:15.820Z,8.43
2022-09-24T06:24:42.537Z,8.17
2022-09-24T06:27:09.504Z,3.83
2022-09-24T06:29:36.270Z,4.50
2022-09-24T06:32:03.123Z,4.90
2022-09-24T06:34:29.957Z,6.60
2022-09-24T06:36:57.256Z,2.90
2022-09-24T06:39:24.483Z,6.57
2022-09-24T06:41:51.571Z,5.40
2022-09-24T06:44:19.285Z,4.70
2022-09-24T06:46:46.224Z,7.93
2022-09-24T06:49:13.036Z,7.40
2022-09-24T06:51:39.900Z,10.80
2022-09-24T06:54:06.772Z,10.10
2022-09-24T06:56:33.603Z,5.77
2022-09-24T06:59:00.419Z,9.07
2022-09-24T07:01:27.262Z,3.63
2022-09-24T07:03:54.298Z,9.87
2022-09-24T07:06:21.112Z,9.23
2022-09-24T07:08:51.814Z,7.50
2022-09-24T07:11:18.755Z,8.33
2022-09-24T07:13:45.547Z,7.90
2022-09-24T07:16:12.389Z,4.70
2022-09-24T07:18:39.275Z,7.77
2022-09-24T07:21:06.289Z,5.70
2022-09-24T07:23:33.038Z,9.90
2022-09-24T07:26:00.310Z,6.17
2022-09-24T07:28:27.097Z,8.23
2022-09-24T07:31:00.180Z,5.70
2022-09-24T07:33:27.296Z,7.20
2022-09-24T07:35:54.035Z,8.50
2022-09-24T07:38:22.304Z,14.03
2022-09-24T07:40:49.617Z,8.77
2022-09-24T07:43:16.455Z,6.57
2022-09-24T07:45:43.260Z,5.43
2022-09-24T07:48:11.031Z,7.57
2022-09-24T07:50:42.760Z,12.63
2022-09-24T07:53:13.261Z,8.27
2022-09-24T07:55:40.608Z,13.83
2022-09-24T07:58:14.771Z,7.33
2022-09-24T08:00:42.297Z,7.53
2022-09-24T08:03:09.155Z,7.90
2022-09-24T08:05:36.134Z,8.20
2022-09-24T08:08:03.009Z,12.03
2022-09-24T08:10:29.738Z,8.80
2022-09-24T08:12:59.260Z,6.43
2022-09-24T08:15:26.081Z,11.07
2022-09-24T08:17:53.103Z,7.53
2022-09-24T08:20:21.020Z,5.00
2022-09-24T08:22:47.771Z,8.23
2022-09-24T08:25:14.631Z,6.37
2022-09-24T08:27:41.425Z,4.97
2022-09-24T08:30:09.036Z,3.60
2022-09-24T08:32:35.845Z,4.53
2022-09-24T08:35:02.587Z,7.90
2022-09-24T08:37:29.523Z,11.97
2022-09-24T08:39:56.309Z,13.53
2022-09-24T08:42:38.442Z,9.83
2022-09-24T08:45:24.753Z,20.83
2022-09-24T08:48:04.843Z,12.80
2022-09-24T08:50:35.493Z,6.47
2022-09-24T08:53:24.671Z,5.27
2022-09-24T08:55:58.230Z,3.87
2022-09-24T08:58:24.920Z,5.13
2022-09-24T09:00:55.654Z,7.67
2022-09-24T09:03:22.371Z,7.27
2022-09-24T09:06:01.618Z,3.43
2022-09-24T09:09:13.628Z,6.33
2022-09-24T09:12:01.122Z,4.80
2022-09-24T09:14:42.391Z,4.47
2022-09-24T09:17:26.027Z,5.53
2022-09-24T09:19:58.261Z,6.10
2022-09-24T09:22:41.658Z,4.67
2022-09-24T09:25:29.915Z,4.57
2022-09-24T09:28:15.018Z,3.67
2022-09-24T09:30:52.378Z,5.20
2022-09-24T09:33:19.170Z,4.30
2022-09-24T09:36:19.817Z,6.60
2022-09-24T09:38:52.479Z,4.67
2022-09-24T09:41:29.664Z,9.67
2022-09-24T09:44:09.434Z,5.80
2022-09-24T09:46:42.837Z,5.93
2022-09-24T09:49:10.541Z,7.60
2022-09-24T09:51:41.152Z,5.00
2022-09-24T09:54:08.227Z,5.13
2022-09-24T09:56:48.890Z,4.80
2022-09-24T09:59:23.524Z,3.63
2022-09-24T10:01:56.373Z,3.07
2022-09-24T10:04:35.824Z,1.17
2022-09-24T10:07:18.061Z,5.03
2022-09-24T10:09:46.842Z,5.90
2022-09-24T10:12:19.879Z,6.17
2022-09-24T10:15:04.448Z,6.33
2022-09-24T10:17:38.029Z,5.80
2022-09-24T10:20:19.024Z,3.80
2022-09-24T10:22:56.400Z,6.03
2022-09-24T10:25:27.175Z,5.97
2022-09-24T10:28:17.412Z,3.73
2022-09-24T10:30:59.250Z,8.03
2022-09-24T10:33:27.239Z,6.40
2022-09-24T10:36:08.331Z,5.03
2022-09-24T10:38:35.192Z,3.28
2022-09-24T10:41:02.235Z,5.10
2022-09-24T10:43:29.099Z,6.37
2022-09-24T10:46:13.107Z,9.20
2022-09-24T10:48:45.585Z,3.73
2022-09-24T10:51:29.003Z,7.13
2022-09-24T10:53:59.232Z,4.53
2022-09-24T10:56:31.887Z,5.43
2022-09-24T10:59:29.647Z,4.10
2022-09-24T11:02:34.054Z,5.47
2022-09-24T11:05:19.902Z,7.17
2022-09-24T11:08:02.066Z,5.40
2022-09-24T11:11:06.387Z,5.10
2022-09-24T11:13:55.861Z,3.67
2022-09-24T11:16:28.699Z,3.30
2022-09-24T11:19:03.259Z,6.03
2022-09-24T11:21:29.964Z,5.70
2022-09-24T11:24:32.316Z,3.73
2022-09-24T11:27:24.052Z,3.23
2022-09-24T11:30:09.323Z,5.73
2022-09-24T11:32:52.241Z,4.53
2022-09-24T11:35:56.695Z,3.60
2022-09-24T11:38:32.504Z,3.77
2022-09-24T11:41:16.942Z,8.13
2022-09-24T11:44:00.926Z,6.53
2022-09-24T11:46:45.187Z,4.57
2022-09-24T11:49:33.161Z,2.13
2022-09-24T11:52:20.087Z,4.07
2022-09-24T11:55:02.955Z,2.37
2022-09-24T11:57:40.201Z,3.07
2022-09-24T12:00:18.049Z,2.47
2022-09-24T12:02:57.329Z,2.90
2022-09-24T12:06:01.055Z,3.47
2022-09-24T12:08:41.279Z,4.47
2022-09-24T12:11:21.031Z,6.47
2022-09-24T12:14:03.555Z,3.07
2022-09-24T12:16:38.148Z,3.60
2022-09-24T12:19:21.428Z,2.40
2022-09-24T12:21:51.117Z,3.57
2022-09-24T12:24:22.750Z,1.43
2022-09-24T12:26:51.163Z,2.80
2022-09-24T12:29:51.912Z,4.40
2022-09-24T12:32:40.297Z,0.97
2022-09-24T12:35:38.561Z,1.73
2022-09-24T12:38:30.164Z,2.80
2022-09-24T12:41:09.263Z,2.33
2022-09-24T12:43:51.519Z,2.00
2022-09-24T12:46:41.394Z,3.57
2022-09-24T12:49:29.604Z,3.63
2022-09-24T12:51:59.233Z,1.53
2022-09-24T12:54:35.159Z,4.07
2022-09-24T12:57:13.243Z,6.23
2022-09-24T12:59:59.809Z,2.43
2022-09-24T13:02:43.294Z,4.67
2022-09-24T13:05:32.257Z,0.97
2022-09-24T13:08:20.048Z,2.07
2022-09-24T13:11:00.651Z,2.83
2022-09-24T13:13:30.759Z,3.13
2022-09-24T13:16:06.761Z,5.43
2022-09-24T13:18:36.102Z,4.10
2022-09-24T13:21:18.660Z,1.47
2022-09-24T13:23:48.528Z,3.60
2022-09-24T13:26:24.498Z,4.73
2022-09-24T13:29:00.965Z,4.27
2022-09-24T13:31:35.345Z,4.60
2022-09-24T13:34:12.937Z,4.47
2022-09-24T13:36:45.717Z,1.70
2022-09-24T13:39:12.416Z,5.43
2022-09-24T13:42:05.801Z,3.47
2022-09-24T13:44:40.671Z,4.70
2022-09-24T13:47:23.013Z,4.60
2022-09-24T13:49:52.949Z,4.60
2022-09-24T13:52:25.916Z,6.40
2022-09-24T13:54:56.682Z,8.20
2022-09-24T13:57:25.934Z,4.87
2022-09-24T14:00:12.650Z,5.07
2022-09-24T14:02:40.225Z,5.80
2022-09-24T14:05:16.409Z,3.73
2022-09-24T14:07:51.898Z,3.90
2022-09-24T14:10:19.381Z,4.70
2022-09-24T14:12:46.675Z,4.78
2022-09-24T14:15:16.797Z,4.60
2022-09-24T14:17:43.778Z,5.27
2022-09-24T14:20:15.778Z,4.80
2022-09-24T14:22:45.698Z,3.03
2022-09-24T14:25:19.643Z,2.17
2022-09-24T14:27:51.647Z,3.37
2022-09-24T14:30:24.273Z,3.00
2022-09-24T14:33:03.461Z,2.43
2022-09-24T14:35:35.368Z,2.70
2022-09-24T14:38:11.619Z,2.90
2022-09-24T14:40:52.453Z,5.93
2022-09-24T14:43:31.234Z,4.17
2022-09-24T14:46:09.461Z,3.37
2022-09-24T14:48:36.375Z,3.47
2022-09-24T14:51:03.217Z,7.80
2022-09-24T14:53:34.174Z,4.37
2022-09-24T14:56:18.278Z,6.23
2022-09-24T14:58:45.121Z,4.80
2022-09-24T15:01:17.695Z,7.10
2022-09-24T15:04:05.605Z,4.43
2022-09-24T15:06:35.439Z,4.93
2022-09-24T15:09:03.729Z,5.17
2022-09-24T15:11:36.453Z,6.53
2022-09-24T15:14:03.246Z,2.57
2022-09-24T15:16:35.269Z,5.10
2022-09-24T15:19:08.177Z,3.23
2022-09-24T15:21:35.012Z,5.47
2022-09-24T15:24:02.138Z,3.43
2022-09-24T15:26:31.879Z,3.03
2022-09-24T15:28:59.327Z,3.40
2022-09-24T15:31:26.355Z,6.13
2022-09-24T15:33:53.288Z,7.23
2022-09-24T15:36:21.223Z,3.53
2022-09-24T15:38:49.494Z,7.33
2022-09-24T15:41:16.338Z,5.93
2022-09-24T15:43:43.119Z,8.27
2022-09-24T15:46:09.942Z,8.07
2022-09-24T15:48:36.747Z,4.20
2022-09-24T15:51:10.099Z,3.73
2022-09-24T15:53:39.139Z,3.00
2022-09-24T15:56:07.676Z,6.90
2022-09-24T15:58:35.015Z,7.03
2022-09-24T16:01:02.028Z,6.37
2022-09-24T16:03:30.877Z,9.50
2022-09-24T16:05:59.467Z,6.33
2022-09-24T16:08:26.858Z,6.23
2022-09-24T16:10:53.907Z,8.50
2022-09-24T16:13:24.151Z,4.13
2022-09-24T16:15:51.000Z,3.70
2022-09-24T16:18:18.113Z,4.23
2022-09-24T16:20:46.257Z,8.33
2022-09-24T16:23:18.309Z,6.47
2022-09-24T16:25:58.972Z,4.37
2022-09-24T16:28:27.253Z,4.37
2022-09-24T16:30:54.507Z,8.77
2022-09-24T16:33:22.492Z,5.30
2022-09-24T16:35:49.433Z,4.67
2022-09-24T16:38:21.833Z,5.53
2022-09-24T16:40:52.080Z,2.90
2022-09-24T16:43:19.187Z,8.77
2022-09-24T16:45:46.073Z,2.10
2022-09-24T16:48:13.648Z,9.87
2022-09-24T16:50:40.868Z,5.80
2022-09-24T16:53:07.930Z,3.37
2022-09-24T16:55:34.891Z,4.03
2022-09-24T16:58:01.665Z,2.93
2022-09-24T17:00:28.520Z,4.60
2022-09-24T17:02:55.372Z,3.70
2022-09-24T17:05:22.192Z,4.03
2022-09-24T17:07:49.141Z,5.03
2022-09-24T17:10:18.016Z,6.63
2022-09-24T17:12:49.995Z,2.70
2022-09-24T17:15:20.724Z,7.07
2022-09-24T17:17:50.475Z,3.00
2022-09-24T17:20:18.981Z,4.60
2022-09-24T17:22:48.192Z,1.53
2022-09-24T17:25:15.465Z,4.83
2022-09-24T17:27:44.914Z,5.20
2022-09-24T17:30:12.211Z,2.53
2022-09-24T17:32:39.015Z,5.63
2022-09-24T17:35:07.844Z,5.83
2022-09-24T17:37:35.213Z,3.07
2022-09-24T17:40:02.809Z,4.57
2022-09-24T17:42:31.661Z,2.00
2022-09-24T17:44:58.512Z,5.60
2022-09-24T17:47:45.226Z,2.83
2022-09-24T17:50:12.604Z,5.13
2022-09-24T17:52:39.380Z,4.83
2022-09-24T17:55:08.370Z,3.47
2022-09-24T17:57:35.206Z,6.50
2022-09-24T18:00:02.348Z,3.63
2022-09-24T18:02:38.588Z,1.80
2022-09-24T18:05:07.253Z,9.40
2022-09-24T18:07:33.998Z,7.33
2022-09-24T18:10:00.894Z,5.77
2022-09-24T18:12:27.752Z,4.33
2022-09-24T18:14:54.597Z,3.30
2022-09-24T18:17:21.330Z,3.20
2022-09-24T18:19:48.105Z,10.73
2022-09-24T18:22:14.871Z,6.17
2022-09-24T18:24:42.029Z,7.57
2022-09-24T18:27:08.915Z,4.97
2022-09-24T18:29:35.984Z,7.80
2022-09-24T18:32:02.748Z,3.33
2022-09-24T18:34:29.889Z,3.20
2022-09-24T18:36:56.713Z,5.13
2022-09-24T18:39:25.618Z,6.53
2022-09-24T18:41:52.864Z,2.53
2022-09-24T18:44:19.795Z,4.03
2022-09-24T18:46:47.075Z,9.03
2022-09-24T18:49:13.897Z,2.87
2022-09-24T18:51:40.729Z,2.33
2022-09-24T18:54:18.375Z,2.63
2022-09-24T18:56:46.173Z,3.20
2022-09-24T18:59:15.850Z,6.30
2022-09-24T19:01:43.563Z,4.40
2022-09-24T19:04:12.634Z,5.77
2022-09-24T19:06:42.144Z,2.80
2022-09-24T19:09:11.021Z,7.43
2022-09-24T19:11:38.023Z,4.43
2022-09-24T19:14:04.734Z,4.83
2022-09-24T19:16:32.467Z,6.40
2022-09-24T19:19:00.458Z,5.40
2022-09-24T19:21:27.445Z,2.77
2022-09-24T19:23:56.727Z,1.27
2022-09-24T19:26:26.174Z,2.80
2022-09-24T19:28:53.653Z,6.30
2022-09-24T19:31:29.932Z,2.80
2022-09-24T19:33:58.051Z,6.37
2022-09-24T19:36:24.894Z,4.87
2022-09-24T19:38:51.943Z,7.47
2022-09-24T19:41:26.317Z,7.03
2022-09-24T19:43:55.153Z,3.60
2022-09-24T19:46:26.854Z,5.57
2022-09-24T19:48:55.564Z,5.37
2022-09-24T19:51:28.111Z,3.13
2022-09-24T19:53:58.224Z,4.23
2022-09-24T19:56:25.523Z,2.60
2022-09-24T19:58:57.671Z,4.80
2022-09-24T20:01:30.042Z,2.93
2022-09-24T20:03:58.489Z,4.23
2022-09-24T20:06:28.877Z,3.43
2022-09-24T20:08:56.443Z,6.63
2022-09-24T20:11:24.803Z,6.47
2022-09-24T20:13:54.234Z,4.30
2022-09-24T20:16:24.428Z,5.97
2022-09-24T20:18:57.508Z,3.50
2022-09-24T20:21:29.216Z,3.33
2022-09-24T20:23:57.905Z,6.77
2022-09-24T20:26:44.541Z,3.30
2022-09-24T20:29:14.612Z,4.70
2022-09-24T20:31:51.259Z,4.97
2022-09-24T20:34:19.669Z,4.73
2022-09-24T20:36:46.484Z,8.10
2022-09-24T20:39:13.443Z,7.07
2022-09-24T20:41:42.728Z,4.73
2022-09-24T20:44:09.783Z,5.63
2022-09-24T20:46:36.794Z,5.63
2022-09-24T20:49:03.624Z,2.13
2022-09-24T20:51:33.732Z,2.47
2022-09-24T20:54:01.229Z,4.83
2022-09-24T20:56:30.714Z,5.90
2022-09-24T20:58:58.614Z,7.43
2022-09-24T21:01:25.704Z,4.17
2022-09-24T21:03:53.008Z,4.47
2022-09-24T21:06:23.629Z,4.83
2022-09-24T21:08:51.650Z,4.60
2022-09-24T21:11:27.560Z,7.07
2022-09-24T21:14:00.585Z,4.87
2022-09-24T21:16:31.083Z,7.33
2022-09-24T21:18:58.813Z,6.53
2022-09-24T21:21:31.136Z,3.67
2022-09-24T21:24:00.175Z,7.87
2022-09-24T21:26:29.387Z,5.07
2022-09-24T21:29:00.418Z,3.63
2022-09-24T21:31:30.582Z,5.30
2022-09-24T21:33:58.246Z,5.07
2022-09-24T21:36:29.276Z,4.27
2022-09-24T21:38:59.038Z,5.43
2022-09-24T21:41:28.577Z,4.73
2022-09-24T21:43:55.898Z,4.87
2022-09-24T21:46:24.449Z,3.50
2022-09-24T21:48:52.315Z,2.77
2022-09-24T21:51:21.602Z,3.63
2022-09-24T21:53:50.391Z,4.00
2022-09-24T21:56:19.125Z,2.80
2022-09-24T21:58:50.724Z,3.80
2022-09-24T22:01:37.795Z,5.63
2022-09-24T22:04:05.680Z,6.43
2022-09-24T22:06:32.783Z,5.63
2022-09-24T22:09:05.575Z,3.17
2022-09-24T22:11:32.560Z,10.20
2022-09-24T22:14:01.195Z,3.77
2022-09-24T22:16:34.670Z,4.67
2022-09-24T22:19:03.599Z,5.63
2022-09-24T22:21:31.419Z,3.20
2022-09-24T22:23:58.928Z,6.87
2022-09-24T22:26:26.298Z,1.83
2022-09-24T22:28:54.253Z,3.47
2022-09-24T22:31:21.130Z,6.07
2022-09-24T22:34:06.606Z,7.37
2022-09-24T22:36:35.025Z,7.87
2022-09-24T22:39:03.751Z,4.20
2022-09-24T22:41:30.936Z,5.03
2022-09-24T22:43:58.364Z,4.97
2022-09-24T22:46:27.097Z,5.93
2022-09-24T22:48:57.305Z,4.50
2022-09-24T22:51:26.435Z,7.70
2022-09-24T22:53:53.896Z,7.50
2022-09-24T22:56:23.185Z,5.87
2022-09-24T22:58:56.377Z,6.13
2022-09-24T23:01:28.660Z,3.93
2022-09-24T23:03:56.458Z,5.70
2022-09-24T23:06:24.251Z,4.93
2022-09-24T23:08:52.694Z,3.57
2022-09-24T23:11:25.267Z,6.37
2022-09-24T23:13:55.802Z,7.90
2022-09-24T23:16:34.472Z,9.07
2022-09-24T23:19:04.849Z,5.47
2022-09-24T23:21:33.185Z,7.10
2022-09-24T23:24:06.204Z,5.03
2022-09-24T23:26:33.181Z,3.77
2022-09-24T23:29:00.699Z,5.63
2022-09-24T23:31:34.211Z,3.50
2022-09-24T23:34:02.095Z,7.53
2022-09-24T23:36:33.675Z,5.80
2022-09-24T23:39:01.728Z,5.87
2022-09-24T23:41:29.939Z,7.37
2022-09-24T23:43:56.767Z,6.90
2022-09-24T23:46:23.677Z,2.87
2022-09-24T23:48:50.499Z,3.73
2022-09-24T23:51:17.248Z,7.57
2022-09-24T23:53:44.206Z,9.70
2022-09-24T23:56:12.274Z,6.43
2022-09-24T23:58:40.319Z,7.67
